You are listening to:
SABE Gnd/Twr/App - Buenos Aires, Argentina

SABE 121200Z 23009G20KT CAVOK 23/05 Q1007 TEMPO 24015G25KT

If stream does not start automatically press the play button